G8XTO Paignton Devon UK current weather conditions

sailwx.info

Wind from 244 at 12 knots gusting 16

Air temperature 13.3° C
Dewpoint 11.9° C

Last reported at 2019-Jun-16 23:00 UTC.
Time now 2019-Jun-17 02:40 UTC

Location: N 50°27' W 003°35'.
View on Google Maps.

See reports from other nearby stations

  
Tides and Currents Weather Stations Pressure Air Temp Water Temp Dewpoint Dewpoint Depression Visibility Wind Speed Wind Dir Waves Ship Positions
date/time (UTC)wind fromknots sea level pressurealtimeterstation pressurevisibilityair tempwater tempwave heightnotes
2019-Jun-16 23:00 244 12 gusting 16 13.3
2019-Jun-16 22:30 252 12 gusting 16 13.3
2019-Jun-16 22:00 215 13 gusting 19 13.3
2019-Jun-16 21:30 226 13 gusting 15 13.3
2019-Jun-16 21:00 232 11 gusting 15 13.3
2019-Jun-16 20:30 232 12 gusting 16 13.3
2019-Jun-16 20:00 232 12 gusting 14 13.3
2019-Jun-16 19:30 230 11 gusting 14 13.9
2019-Jun-16 19:00 222 13 gusting 19 13.9
2019-Jun-16 18:30 213 11 gusting 13 13.9
2019-Jun-16 18:00 214 13 gusting 21 14.4
2019-Jun-16 17:30 247 14 gusting 21 14.4
2019-Jun-16 17:00 249 11 gusting 17 14.4
2019-Jun-16 16:30 261 13 gusting 15 14.4
2019-Jun-16 16:00 218 12 gusting 17 13.9
2019-Jun-16 15:30 267 13 gusting 19 14.4
2019-Jun-16 15:00 252 15 gusting 19 15.0
2019-Jun-16 14:30 256 15 gusting 20 15.0
2019-Jun-16 14:00 245 16 gusting 19 15.6
2019-Jun-16 13:30 234 13 gusting 19 15.0
2019-Jun-16 13:00 238 18 gusting 21 15.0
2019-Jun-16 12:30 235 13 gusting 17 14.4
2019-Jun-16 12:00 246 14 gusting 19 15.0
2019-Jun-16 11:30 246 14 gusting 19 15.0
2019-Jun-16 11:00 235 13 gusting 19 14.4
2019-Jun-16 10:30 221 13 gusting 17 15.0
2019-Jun-16 10:00 232 12 gusting 18 15.0
2019-Jun-16 09:30 247 13 gusting 19 15.0
2019-Jun-16 09:00 241 10 gusting 13 14.4
2019-Jun-16 08:30 220 12 gusting 17 14.4
2019-Jun-16 08:00 230 11 gusting 18 13.9
2019-Jun-16 07:30 230 10 gusting 14 13.9
2019-Jun-16 07:00 238 10 gusting 14 13.3
2019-Jun-16 06:30 219 10 gusting 14 13.3
2019-Jun-16 06:00 240 10 gusting 13 12.8
2019-Jun-16 05:30 239 10 gusting 15 12.8
2019-Jun-16 05:00 224 8 gusting 13 12.2
2019-Jun-16 04:30 235 6 gusting 8 12.2
2019-Jun-16 04:00 238 7 gusting 10 12.2
2019-Jun-16 03:30 205 6 gusting 11 12.8
2019-Jun-16 03:00 213 6 gusting 9 12.8
2019-Jun-16 02:30 182 3 gusting 6 12.2
2019-Jun-16 02:00 215 3 gusting 5 12.2
2019-Jun-16 01:30 235 5 gusting 6 12.2
2019-Jun-16 01:00 224 4 gusting 5 11.7
2019-Jun-16 00:30 242 3 gusting 5 11.7
2019-Jun-16 00:00 207 3 gusting 5 11.7
2019-Jun-15 23:30 223 3 gusting 5 11.7
2019-Jun-15 23:00 245 5 gusting 6 11.1
2019-Jun-15 22:30 215 5 gusting 6 11.1
2019-Jun-15 22:00 227 4 gusting 5 11.7
2019-Jun-15 21:30 225 5 gusting 6 11.7
2019-Jun-15 21:00 197 4 gusting 6 11.7
2019-Jun-15 20:30 237 4 gusting 6 12.2
2019-Jun-15 20:00 225 5 gusting 6 12.8
2019-Jun-15 19:30 231 7 gusting 11 13.3
2019-Jun-15 19:00 233 7 gusting 12 13.3
2019-Jun-15 18:30 229 9 gusting 13 13.9
2019-Jun-15 18:00 242 9 gusting 12 14.4
2019-Jun-15 17:30 233 9 gusting 13 14.4
2019-Jun-15 17:00 244 8 gusting 15 15.0
2019-Jun-15 16:30 242 9 gusting 14 15.6
2019-Jun-15 16:00 224 10 gusting 14 15.6
2019-Jun-15 15:30 245 12 gusting 16 16.1
2019-Jun-15 15:00 227 11 gusting 13 16.1
2019-Jun-15 14:30 246 11 gusting 13 16.1
2019-Jun-15 14:00 215 9 gusting 13 16.1
2019-Jun-15 13:30 249 8 gusting 11 16.7
2019-Jun-15 13:00 216 6 gusting 10 16.1
2019-Jun-15 12:30 233 8 gusting 12 16.1
2019-Jun-15 12:00 233 11 gusting 13 15.6
2019-Jun-15 11:30 235 10 gusting 12 15.6
2019-Jun-15 11:00 235 9 gusting 12 15.6
2019-Jun-15 10:30 259 6 gusting 8 15.0
2019-Jun-15 10:00 234 9 gusting 13 15.0
2019-Jun-15 09:30 251 6 gusting 12 13.9
2019-Jun-15 09:00 234 6 gusting 8 13.3
2019-Jun-15 08:30 253 7 gusting 11 12.8
2019-Jun-15 08:00 238 6 gusting 8 12.2
2019-Jun-15 07:30 240 4 gusting 6 11.7
2019-Jun-15 07:00 220 8 gusting 12 11.7
2019-Jun-15 06:30 213 8 gusting 11 11.7
2019-Jun-15 06:00 203 8 gusting 12 11.1
2019-Jun-15 05:30 238 9 gusting 15 11.7
2019-Jun-15 05:00 214 9 gusting 12 11.7
2019-Jun-15 04:30 186 8 gusting 10 11.7
2019-Jun-15 04:00 200 7 gusting 10 11.7
2019-Jun-15 03:30 211 11 gusting 16 11.7
2019-Jun-15 03:00 194 9 gusting 13 11.7
2019-Jun-15 02:30 203 8 gusting 13 11.7
2019-Jun-15 02:00 206 9 gusting 12 12.2